sensor_id;sensor_type;location;lat;lon;timestamp;pressure;altitude;pressure_sealevel;temperature;humidity
43115;BME280;28727;50.068;14.452;2023-03-25T00:01:24;98384.56;;;11.76;63.65
43115;BME280;28727;50.068;14.452;2023-03-25T00:03:56;98385.50;;;11.68;64.20
43115;BME280;28727;50.068;14.452;2023-03-25T00:06:29;98372.69;;;11.65;64.13
43115;BME280;28727;50.068;14.452;2023-03-25T00:09:02;98372.88;;;11.64;64.26
43115;BME280;28727;50.068;14.452;2023-03-25T00:11:34;98369.03;;;11.60;64.15
43115;BME280;28727;50.068;14.452;2023-03-25T00:14:06;98360.84;;;11.55;64.32
43115;BME280;28727;50.068;14.452;2023-03-25T00:16:42;98365.91;;;11.49;64.67
43115;BME280;28727;50.068;14.452;2023-03-25T00:19:14;98365.09;;;11.49;64.59
43115;BME280;28727;50.068;14.452;2023-03-25T00:21:48;98362.88;;;11.46;64.82
43115;BME280;28727;50.068;14.452;2023-03-25T00:24:21;98366.13;;;11.41;65.03
43115;BME280;28727;50.068;14.452;2023-03-25T00:26:52;98367.31;;;11.39;65.02
43115;BME280;28727;50.068;14.452;2023-03-25T00:29:24;98366.28;;;11.33;64.98
43115;BME280;28727;50.068;14.452;2023-03-25T00:31:56;98371.56;;;11.33;65.13
43115;BME280;28727;50.068;14.452;2023-03-25T00:34:28;98367.09;;;11.34;64.96
43115;BME280;28727;50.068;14.452;2023-03-25T00:37:00;98360.59;;;11.30;65.02
43115;BME280;28727;50.068;14.452;2023-03-25T00:39:35;98365.66;;;11.25;65.16
43115;BME280;28727;50.068;14.452;2023-03-25T00:42:08;98359.28;;;11.19;65.61
43115;BME280;28727;50.068;14.452;2023-03-25T00:44:41;98358.28;;;11.20;65.03
43115;BME280;28727;50.068;14.452;2023-03-25T00:47:13;98355.22;;;11.17;65.52
43115;BME280;28727;50.068;14.452;2023-03-25T00:49:49;98351.97;;;11.15;65.53
43115;BME280;28727;50.068;14.452;2023-03-25T00:52:22;98354.59;;;11.15;65.46
43115;BME280;28727;50.068;14.452;2023-03-25T00:54:53;98358.25;;;11.14;65.49
43115;BME280;28727;50.068;14.452;2023-03-25T00:57:25;98359.47;;;11.11;65.73
43115;BME280;28727;50.068;14.452;2023-03-25T00:59:57;98354.56;;;11.08;65.53
43115;BME280;28727;50.068;14.452;2023-03-25T01:02:29;98351.31;;;11.06;65.59
43115;BME280;28727;50.068;14.452;2023-03-25T01:05:01;98355.78;;;11.05;65.70
43115;BME280;28727;50.068;14.452;2023-03-25T01:07:35;98360.84;;;11.00;65.97
43115;BME280;28727;50.068;14.452;2023-03-25T01:10:09;98358.63;;;11.04;65.85
43115;BME280;28727;50.068;14.452;2023-03-25T01:12:42;98356.38;;;11.01;65.74
43115;BME280;28727;50.068;14.452;2023-03-25T01:15:14;98367.97;;;11.00;65.68
43115;BME280;28727;50.068;14.452;2023-03-25T01:17:46;98363.84;;;10.91;65.98
43115;BME280;28727;50.068;14.452;2023-03-25T01:20:17;98369.34;;;10.89;66.38
43115;BME280;28727;50.068;14.452;2023-03-25T01:22:49;98365.06;;;10.88;66.43
43115;BME280;28727;50.068;14.452;2023-03-25T01:25:21;98357.94;;;10.89;66.34
43115;BME280;28727;50.068;14.452;2023-03-25T01:27:53;98363.22;;;10.89;66.54
43115;BME280;28727;50.068;14.452;2023-03-25T01:30:25;98359.78;;;10.88;66.14
43115;BME280;28727;50.068;14.452;2023-03-25T01:32:56;98363.59;;;10.86;66.45
43115;BME280;28727;50.068;14.452;2023-03-25T01:35:28;98359.31;;;10.85;66.38
43115;BME280;28727;50.068;14.452;2023-03-25T01:38:00;98360.38;;;10.84;66.06
43115;BME280;28727;50.068;14.452;2023-03-25T01:40:33;98361.94;;;10.78;66.39
43115;BME280;28727;50.068;14.452;2023-03-25T01:43:08;98343.66;;;10.77;66.61
43115;BME280;28727;50.068;14.452;2023-03-25T01:45:43;98348.72;;;10.78;66.30
43115;BME280;28727;50.068;14.452;2023-03-25T01:48:25;98347.13;;;10.77;66.33
43115;BME280;28727;50.068;14.452;2023-03-25T01:51:03;98351.19;;;10.80;66.64
43115;BME280;28727;50.068;14.452;2023-03-25T01:53:37;98357.09;;;10.82;66.45
43115;BME280;28727;50.068;14.452;2023-03-25T01:56:12;98354.00;;;10.78;66.62
43115;BME280;28727;50.068;14.452;2023-03-25T01:58:46;98346.91;;;10.79;66.72
43115;BME280;28727;50.068;14.452;2023-03-25T02:01:19;98348.13;;;10.76;66.78
43115;BME280;28727;50.068;14.452;2023-03-25T02:03:53;98343.22;;;10.73;67.34
43115;BME280;28727;50.068;14.452;2023-03-25T02:06:39;98344.84;;;10.74;67.24
43115;BME280;28727;50.068;14.452;2023-03-25T02:09:15;98348.13;;;10.76;67.08
43115;BME280;28727;50.068;14.452;2023-03-25T02:11:48;98343.63;;;10.70;67.21
43115;BME280;28727;50.068;14.452;2023-03-25T02:14:22;98342.97;;;10.68;67.23
43115;BME280;28727;50.068;14.452;2023-03-25T02:28:45;98332.31;;;10.55;68.10
43115;BME280;28727;50.068;14.452;2023-03-25T02:37:17;98339.25;;;10.56;68.51
43115;BME280;28727;50.068;14.452;2023-03-25T02:40:02;98343.72;;;10.55;68.48
43115;BME280;28727;50.068;14.452;2023-03-25T02:43:03;98346.34;;;10.55;68.80
43115;BME280;28727;50.068;14.452;2023-03-25T02:45:46;98340.50;;;10.60;68.19
43115;BME280;28727;50.068;14.452;2023-03-25T02:48:30;98328.91;;;10.61;68.42
43115;BME280;28727;50.068;14.452;2023-03-25T02:51:09;98335.66;;;10.63;68.32
43115;BME280;28727;50.068;14.452;2023-03-25T02:53:45;98320.81;;;10.62;68.78
43115;BME280;28727;50.068;14.452;2023-03-25T02:56:19;98320.44;;;10.65;68.52
43115;BME280;28727;50.068;14.452;2023-03-25T02:58:55;98315.97;;;10.66;68.79
43115;BME280;28727;50.068;14.452;2023-03-25T03:01:27;98309.66;;;10.67;68.88
43115;BME280;28727;50.068;14.452;2023-03-25T03:04:00;98307.81;;;10.67;69.48
43115;BME280;28727;50.068;14.452;2023-03-25T03:06:39;98302.34;;;10.69;69.42
43115;BME280;28727;50.068;14.452;2023-03-25T03:12:30;98294.44;;;10.69;69.68
43115;BME280;28727;50.068;14.452;2023-03-25T03:18:00;98301.34;;;10.70;69.32
43115;BME280;28727;50.068;14.452;2023-03-25T03:20:56;98302.53;;;10.67;69.25
43115;BME280;28727;50.068;14.452;2023-03-25T03:26:47;98301.13;;;10.65;68.60
43115;BME280;28727;50.068;14.452;2023-03-25T03:29:31;98309.00;;;10.58;68.60
43115;BME280;28727;50.068;14.452;2023-03-25T03:32:18;98314.47;;;10.57;68.26
43115;BME280;28727;50.068;14.452;2023-03-25T03:34:55;98309.59;;;10.54;68.51
43115;BME280;28727;50.068;14.452;2023-03-25T03:37:38;98317.06;;;10.50;67.77
43115;BME280;28727;50.068;14.452;2023-03-25T03:40:16;98319.47;;;10.45;67.89
43115;BME280;28727;50.068;14.452;2023-03-25T03:42:57;98320.88;;;10.41;67.78
43115;BME280;28727;50.068;14.452;2023-03-25T03:45:46;98319.44;;;10.39;67.67
43115;BME280;28727;50.068;14.452;2023-03-25T03:48:32;98315.09;;;10.31;67.40
43115;BME280;28727;50.068;14.452;2023-03-25T03:51:13;98320.78;;;10.28;66.97
43115;BME280;28727;50.068;14.452;2023-03-25T03:54:02;98320.97;;;10.26;66.70
43115;BME280;28727;50.068;14.452;2023-03-25T03:56:44;98325.66;;;10.24;66.38
43115;BME280;28727;50.068;14.452;2023-03-25T03:59:34;98321.66;;;10.14;66.50
43115;BME280;28727;50.068;14.452;2023-03-25T04:02:19;98326.50;;;10.10;66.64
43115;BME280;28727;50.068;14.452;2023-03-25T04:04:54;98327.50;;;10.09;66.53
43115;BME280;28727;50.068;14.452;2023-03-25T04:07:46;98317.34;;;10.06;66.68
43115;BME280;28727;50.068;14.452;2023-03-25T04:10:38;98317.91;;;10.02;66.68
43115;BME280;28727;50.068;14.452;2023-03-25T04:13:14;98321.56;;;10.01;66.44
43115;BME280;28727;50.068;14.452;2023-03-25T04:15:48;98318.94;;;10.01;66.47
43115;BME280;28727;50.068;14.452;2023-03-25T04:18:20;98320.09;;;9.98;66.29
43115;BME280;28727;50.068;14.452;2023-03-25T04:20:54;98318.28;;;9.99;66.12
43115;BME280;28727;50.068;14.452;2023-03-25T04:23:27;98320.28;;;9.97;65.71
43115;BME280;28727;50.068;14.452;2023-03-25T04:26:02;98313.13;;;9.91;65.99
43115;BME280;28727;50.068;14.452;2023-03-25T04:28:37;98309.25;;;9.86;66.18
43115;BME280;28727;50.068;14.452;2023-03-25T04:31:13;98299.53;;;9.87;65.89
43115;BME280;28727;50.068;14.452;2023-03-25T04:33:46;98297.53;;;9.89;65.79
43115;BME280;28727;50.068;14.452;2023-03-25T04:36:19;98297.31;;;9.91;65.69
43115;BME280;28727;50.068;14.452;2023-03-25T04:38:51;98310.94;;;9.94;65.38
43115;BME280;28727;50.068;14.452;2023-03-25T04:41:24;98307.09;;;9.97;65.38
43115;BME280;28727;50.068;14.452;2023-03-25T04:43:56;98320.94;;;9.99;65.17
43115;BME280;28727;50.068;14.452;2023-03-25T04:46:28;98320.94;;;9.99;65.26
43115;BME280;28727;50.068;14.452;2023-03-25T04:49:05;98322.75;;;9.98;65.99
43115;BME280;28727;50.068;14.452;2023-03-25T04:51:44;98321.56;;;10.01;65.57
43115;BME280;28727;50.068;14.452;2023-03-25T04:54:20;98332.31;;;9.99;65.75
43115;BME280;28727;50.068;14.452;2023-03-25T04:56:52;98336.56;;;10.00;65.96
43115;BME280;28727;50.068;14.452;2023-03-25T04:59:23;98343.28;;;10.03;65.44
43115;BME280;28727;50.068;14.452;2023-03-25T05:01:55;98345.09;;;10.02;65.78
43115;BME280;28727;50.068;14.452;2023-03-25T05:04:27;98344.50;;;10.00;65.71
43115;BME280;28727;50.068;14.452;2023-03-25T05:06:59;98336.38;;;10.02;65.68
43115;BME280;28727;50.068;14.452;2023-03-25T05:09:31;98349.19;;;10.05;65.69
43115;BME280;28727;50.068;14.452;2023-03-25T05:12:03;98358.50;;;10.01;65.74
43115;BME280;28727;50.068;14.452;2023-03-25T05:14:34;98361.31;;;9.99;65.83
43115;BME280;28727;50.068;14.452;2023-03-25T05:17:06;98359.31;;;10.01;65.81
43115;BME280;28727;50.068;14.452;2023-03-25T05:19:38;98358.34;;;10.09;65.56
43115;BME280;28727;50.068;14.452;2023-03-25T05:22:14;98353.66;;;10.04;65.81
43115;BME280;28727;50.068;14.452;2023-03-25T05:24:46;98360.56;;;10.05;65.84
43115;BME280;28727;50.068;14.452;2023-03-25T05:27:18;98364.19;;;10.04;65.77
43115;BME280;28727;50.068;14.452;2023-03-25T05:29:50;98357.34;;;10.10;66.41
43115;BME280;28727;50.068;14.452;2023-03-25T05:32:23;98360.06;;;10.16;65.90
43115;BME280;28727;50.068;14.452;2023-03-25T05:34:56;98362.78;;;10.85;64.56
43115;BME280;28727;50.068;14.452;2023-03-25T05:37:28;98361.78;;;11.27;63.39
43115;BME280;28727;50.068;14.452;2023-03-25T05:40:00;98360.13;;;12.72;60.24
43115;BME280;28727;50.068;14.452;2023-03-25T05:42:33;98354.13;;;13.99;56.67
43115;BME280;28727;50.068;14.452;2023-03-25T05:45:08;98353.19;;;14.43;54.72
43115;BME280;28727;50.068;14.452;2023-03-25T05:47:43;98357.22;;;14.70;53.39
43115;BME280;28727;50.068;14.452;2023-03-25T05:50:16;98355.75;;;14.00;53.44
43115;BME280;28727;50.068;14.452;2023-03-25T05:52:48;98364.13;;;13.97;53.95
43115;BME280;28727;50.068;14.452;2023-03-25T05:55:22;98359.84;;;13.96;53.57
43115;BME280;28727;50.068;14.452;2023-03-25T05:57:54;98370.34;;;13.46;53.99
43115;BME280;28727;50.068;14.452;2023-03-25T06:00:27;98373.09;;;13.20;54.62
43115;BME280;28727;50.068;14.452;2023-03-25T06:03:00;98366.66;;;12.90;55.00
43115;BME280;28727;50.068;14.452;2023-03-25T06:05:39;98374.44;;;12.45;55.31
43115;BME280;28727;50.068;14.452;2023-03-25T06:08:12;98379.13;;;12.23;56.17
43115;BME280;28727;50.068;14.452;2023-03-25T06:10:44;98376.28;;;12.12;56.35
43115;BME280;28727;50.068;14.452;2023-03-25T06:13:16;98374.84;;;12.09;56.46
43115;BME280;28727;50.068;14.452;2023-03-25T06:15:48;98379.91;;;11.98;56.63
43115;BME280;28727;50.068;14.452;2023-03-25T06:18:23;98371.94;;;11.84;56.77
43115;BME280;28727;50.068;14.452;2023-03-25T06:20:55;98383.34;;;11.85;56.96
43115;BME280;28727;50.068;14.452;2023-03-25T06:23:28;98377.28;;;12.04;56.29
43115;BME280;28727;50.068;14.452;2023-03-25T06:26:00;98387.25;;;12.02;56.17
43115;BME280;28727;50.068;14.452;2023-03-25T06:28:31;98384.84;;;12.34;55.22
43115;BME280;28727;50.068;14.452;2023-03-25T06:31:04;98384.84;;;12.53;54.55
43115;BME280;28727;50.068;14.452;2023-03-25T06:33:38;98379.66;;;12.91;53.31
43115;BME280;28727;50.068;14.452;2023-03-25T06:36:15;98386.59;;;13.05;52.81
43115;BME280;28727;50.068;14.452;2023-03-25T06:38:49;98395.53;;;13.24;52.09
43115;BME280;28727;50.068;14.452;2023-03-25T06:41:23;98389.81;;;13.21;51.61
43115;BME280;28727;50.068;14.452;2023-03-25T06:44:07;98382.69;;;13.08;51.35
43115;BME280;28727;50.068;14.452;2023-03-25T06:46:51;98376.19;;;12.91;52.93
43115;BME280;28727;50.068;14.452;2023-03-25T06:49:41;98382.69;;;13.15;51.49
43115;BME280;28727;50.068;14.452;2023-03-25T06:52:18;98389.09;;;13.51;50.78
43115;BME280;28727;50.068;14.452;2023-03-25T06:54:49;98378.38;;;14.03;49.00
43115;BME280;28727;50.068;14.452;2023-03-25T06:57:21;98389.09;;;14.52;47.82
43115;BME280;28727;50.068;14.452;2023-03-25T06:59:53;98385.31;;;14.85;46.97
43115;BME280;28727;50.068;14.452;2023-03-25T07:02:25;98386.81;;;15.17;46.21
43115;BME280;28727;50.068;14.452;2023-03-25T07:04:56;98383.75;;;15.50;44.93
43115;BME280;28727;50.068;14.452;2023-03-25T07:07:28;98378.44;;;15.68;49.58
43115;BME280;28727;50.068;14.452;2023-03-25T07:10:00;98390.03;;;16.04;45.75
43115;BME280;28727;50.068;14.452;2023-03-25T07:12:33;98387.44;;;16.38;45.19
43115;BME280;28727;50.068;14.452;2023-03-25T07:15:05;98390.00;;;16.33;45.01
43115;BME280;28727;50.068;14.452;2023-03-25T07:17:40;98384.22;;;16.36;45.57
43115;BME280;28727;50.068;14.452;2023-03-25T07:20:13;98400.06;;;16.20;45.08
43115;BME280;28727;50.068;14.452;2023-03-25T07:22:47;98398.38;;;15.95;45.66
43115;BME280;28727;50.068;14.452;2023-03-25T07:25:19;98392.00;;;15.67;45.57
43115;BME280;28727;50.068;14.452;2023-03-25T07:27:51;98395.31;;;15.62;46.60
43115;BME280;28727;50.068;14.452;2023-03-25T07:30:24;98396.25;;;15.97;46.29
43115;BME280;28727;50.068;14.452;2023-03-25T07:32:59;98387.69;;;16.25;43.99
43115;BME280;28727;50.068;14.452;2023-03-25T07:35:30;98385.34;;;16.29;43.59
43115;BME280;28727;50.068;14.452;2023-03-25T07:38:03;98381.75;;;16.23;43.17
43115;BME280;28727;50.068;14.452;2023-03-25T07:40:35;98389.53;;;16.36;43.22
43115;BME280;28727;50.068;14.452;2023-03-25T07:43:07;98388.28;;;16.51;42.79
43115;BME280;28727;50.068;14.452;2023-03-25T07:45:57;98386.50;;;16.33;43.11
43115;BME280;28727;50.068;14.452;2023-03-25T07:48:33;98397.94;;;16.10;44.95
43115;BME280;28727;50.068;14.452;2023-03-25T07:51:06;98403.84;;;15.52;43.41
43115;BME280;28727;50.068;14.452;2023-03-25T07:53:39;98424.16;;;14.61;45.41
43115;BME280;28727;50.068;14.452;2023-03-25T07:56:15;98421.13;;;14.01;47.87
43115;BME280;28727;50.068;14.452;2023-03-25T07:58:46;98427.41;;;13.62;49.40
43115;BME280;28727;50.068;14.452;2023-03-25T08:01:22;98421.63;;;13.34;51.15
43115;BME280;28727;50.068;14.452;2023-03-25T08:03:54;98425.75;;;12.97;51.99
43115;BME280;28727;50.068;14.452;2023-03-25T08:06:26;98430.66;;;12.80;52.15
43115;BME280;28727;50.068;14.452;2023-03-25T08:08:57;98433.31;;;12.80;52.32
43115;BME280;28727;50.068;14.452;2023-03-25T08:11:29;98421.50;;;12.63;53.13
43115;BME280;28727;50.068;14.452;2023-03-25T08:14:04;98435.34;;;12.45;54.37
43115;BME280;28727;50.068;14.452;2023-03-25T08:16:35;98441.63;;;12.11;56.24
43115;BME280;28727;50.068;14.452;2023-03-25T08:19:07;98441.16;;;11.88;57.11
43115;BME280;28727;50.068;14.452;2023-03-25T08:21:39;98439.72;;;11.79;57.70
43115;BME280;28727;50.068;14.452;2023-03-25T08:24:11;98433.72;;;11.64;58.76
43115;BME280;28727;50.068;14.452;2023-03-25T08:26:44;98423.38;;;11.69;59.05
43115;BME280;28727;50.068;14.452;2023-03-25T08:29:15;98426.69;;;11.84;58.96
43115;BME280;28727;50.068;14.452;2023-03-25T08:31:48;98418.84;;;12.23;57.97
43115;BME280;28727;50.068;14.452;2023-03-25T08:34:22;98412.53;;;12.64;57.09
43115;BME280;28727;50.068;14.452;2023-03-25T08:37:02;98411.75;;;13.54;54.90
43115;BME280;28727;50.068;14.452;2023-03-25T08:39:34;98415.06;;;14.19;53.67
43115;BME280;28727;50.068;14.452;2023-03-25T08:42:12;98407.31;;;14.49;51.50
43115;BME280;28727;50.068;14.452;2023-03-25T08:44:46;98410.56;;;14.75;50.04
43115;BME280;28727;50.068;14.452;2023-03-25T08:47:19;98414.53;;;14.42;50.11
43115;BME280;28727;50.068;14.452;2023-03-25T08:49:51;98415.56;;;14.03;49.64
43115;BME280;28727;50.068;14.452;2023-03-25T08:52:22;98427.38;;;13.75;49.52
43115;BME280;28727;50.068;14.452;2023-03-25T08:54:54;98422.00;;;13.37;48.97
43115;BME280;28727;50.068;14.452;2023-03-25T08:57:29;98455.91;;;13.29;50.02
43115;BME280;28727;50.068;14.452;2023-03-25T09:00:01;98441.63;;;13.03;50.14
43115;BME280;28727;50.068;14.452;2023-03-25T09:02:33;98449.84;;;12.82;50.68
43115;BME280;28727;50.068;14.452;2023-03-25T09:05:08;98447.41;;;12.54;51.68
43115;BME280;28727;50.068;14.452;2023-03-25T09:07:45;98449.81;;;12.23;52.03
43115;BME280;28727;50.068;14.452;2023-03-25T09:10:18;98446.34;;;12.22;52.08
43115;BME280;28727;50.068;14.452;2023-03-25T09:12:50;98439.84;;;12.25;52.20
43115;BME280;28727;50.068;14.452;2023-03-25T09:15:22;98428.22;;;12.32;52.46
43115;BME280;28727;50.068;14.452;2023-03-25T09:17:54;98432.91;;;12.57;51.32
43115;BME280;28727;50.068;14.452;2023-03-25T09:20:26;98425.75;;;12.90;49.94
43115;BME280;28727;50.068;14.452;2023-03-25T09:22:58;98425.13;;;13.21;49.16
43115;BME280;28727;50.068;14.452;2023-03-25T09:25:29;98440.03;;;13.73;48.95
43115;BME280;28727;50.068;14.452;2023-03-25T09:28:01;98425.56;;;14.07;47.04
43115;BME280;28727;50.068;14.452;2023-03-25T09:30:33;98432.22;;;14.54;50.84
43115;BME280;28727;50.068;14.452;2023-03-25T09:33:05;98433.81;;;15.05;46.42
43115;BME280;28727;50.068;14.452;2023-03-25T09:35:39;98451.34;;;15.67;45.13
43115;BME280;28727;50.068;14.452;2023-03-25T09:38:12;98445.97;;;16.04;44.82
43115;BME280;28727;50.068;14.452;2023-03-25T09:40:44;98426.28;;;16.34;42.58
43115;BME280;28727;50.068;14.452;2023-03-25T09:45:58;98435.81;;;16.54;43.56
43115;BME280;28727;50.068;14.452;2023-03-25T09:48:40;98434.13;;;17.17;42.16
43115;BME280;28727;50.068;14.452;2023-03-25T09:51:34;98441.09;;;17.30;41.08
43115;BME280;28727;50.068;14.452;2023-03-25T09:54:26;98433.53;;;17.15;41.98
43115;BME280;28727;50.068;14.452;2023-03-25T09:57:04;98428.81;;;17.06;41.60
43115;BME280;28727;50.068;14.452;2023-03-25T09:59:44;98413.25;;;17.03;39.98
43115;BME280;28727;50.068;14.452;2023-03-25T10:08:13;98413.88;;;17.45;41.98
43115;BME280;28727;50.068;14.452;2023-03-25T10:11:05;98409.09;;;17.58;39.56
43115;BME280;28727;50.068;14.452;2023-03-25T10:14:26;98416.44;;;17.63;39.73
43115;BME280;28727;50.068;14.452;2023-03-25T10:19:50;98425.66;;;17.84;38.08
43115;BME280;28727;50.068;14.452;2023-03-25T10:25:23;98428.94;;;16.34;39.04
43115;BME280;28727;50.068;14.452;2023-03-25T10:27:58;98436.25;;;15.79;39.99
43115;BME280;28727;50.068;14.452;2023-03-25T10:30:34;98422.38;;;15.41;40.67
43115;BME280;28727;50.068;14.452;2023-03-25T10:33:20;98416.28;;;15.15;41.32
43115;BME280;28727;50.068;14.452;2023-03-25T10:35:57;98418.00;;;15.10;41.71
43115;BME280;28727;50.068;14.452;2023-03-25T10:38:33;98413.22;;;15.19;41.97
43115;BME280;28727;50.068;14.452;2023-03-25T10:41:16;98410.16;;;15.33;41.53
43115;BME280;28727;50.068;14.452;2023-03-25T10:43:53;98412.00;;;15.33;41.78
43115;BME280;28727;50.068;14.452;2023-03-25T10:49:28;98412.47;;;15.11;41.88
43115;BME280;28727;50.068;14.452;2023-03-25T10:52:01;98410.59;;;14.94;41.86
43115;BME280;28727;50.068;14.452;2023-03-25T10:54:35;98428.72;;;14.79;42.27
43115;BME280;28727;50.068;14.452;2023-03-25T10:57:17;98411.59;;;14.50;42.25
43115;BME280;28727;50.068;14.452;2023-03-25T11:00:07;98395.44;;;14.51;42.56
43115;BME280;28727;50.068;14.452;2023-03-25T11:02:50;98406.78;;;14.65;42.80
43115;BME280;28727;50.068;14.452;2023-03-25T11:05:25;98413.47;;;14.67;43.26
43115;BME280;28727;50.068;14.452;2023-03-25T11:07:59;98386.22;;;14.54;42.83
43115;BME280;28727;50.068;14.452;2023-03-25T11:10:54;98387.66;;;14.25;42.87
43115;BME280;28727;50.068;14.452;2023-03-25T11:13:30;98394.31;;;14.03;43.10
43115;BME280;28727;50.068;14.452;2023-03-25T11:16:02;98386.84;;;13.93;42.85
43115;BME280;28727;50.068;14.452;2023-03-25T11:18:37;98370.94;;;13.86;42.71
43115;BME280;28727;50.068;14.452;2023-03-25T11:21:12;98375.91;;;13.76;42.97
43115;BME280;28727;50.068;14.452;2023-03-25T11:23:49;98359.97;;;13.76;43.10
43115;BME280;28727;50.068;14.452;2023-03-25T11:26:35;98359.38;;;13.74;43.18
43115;BME280;28727;50.068;14.452;2023-03-25T11:29:16;98362.19;;;13.79;42.88
43115;BME280;28727;50.068;14.452;2023-03-25T11:32:13;98347.84;;;14.18;42.34
43115;BME280;28727;50.068;14.452;2023-03-25T11:34:49;98353.66;;;14.58;41.52
43115;BME280;28727;50.068;14.452;2023-03-25T11:37:22;98348.81;;;14.73;40.28
43115;BME280;28727;50.068;14.452;2023-03-25T11:40:04;98344.16;;;14.69;40.45
43115;BME280;28727;50.068;14.452;2023-03-25T11:42:39;98340.69;;;14.87;39.55
43115;BME280;28727;50.068;14.452;2023-03-25T11:45:35;98337.16;;;14.74;40.04
43115;BME280;28727;50.068;14.452;2023-03-25T11:48:16;98329.59;;;15.08;40.00
43115;BME280;28727;50.068;14.452;2023-03-25T11:50:57;98327.63;;;15.70;39.67
43115;BME280;28727;50.068;14.452;2023-03-25T11:53:31;98318.50;;;16.19;38.56
43115;BME280;28727;50.068;14.452;2023-03-25T11:56:06;98326.59;;;16.24;38.20
43115;BME280;28727;50.068;14.452;2023-03-25T11:58:41;98323.81;;;16.07;37.65
43115;BME280;28727;50.068;14.452;2023-03-25T12:01:28;98311.78;;;15.75;37.82
43115;BME280;28727;50.068;14.452;2023-03-25T12:09:30;98335.03;;;14.83;39.84
43115;BME280;28727;50.068;14.452;2023-03-25T12:13:08;98327.78;;;14.72;40.39
43115;BME280;28727;50.068;14.452;2023-03-25T12:15:25;98328.06;;;14.64;40.30
43115;BME280;28727;50.068;14.452;2023-03-25T12:21:12;98318.88;;;14.42;40.74
43115;BME280;28727;50.068;14.452;2023-03-25T12:29:41;98320.31;;;14.38;41.99
43115;BME280;28727;50.068;14.452;2023-03-25T12:32:24;98312.56;;;14.79;42.46
43115;BME280;28727;50.068;14.452;2023-03-25T12:35:36;98313.09;;;15.06;41.86
43115;BME280;28727;50.068;14.452;2023-03-25T12:46:32;98290.56;;;14.72;40.69
43115;BME280;28727;50.068;14.452;2023-03-25T12:52:18;98279.44;;;15.30;40.14
43115;BME280;28727;50.068;14.452;2023-03-25T13:12:01;98276.81;;;14.93;41.50
43115;BME280;28727;50.068;14.452;2023-03-25T13:14:38;98267.25;;;15.04;41.56
43115;BME280;28727;50.068;14.452;2023-03-25T13:17:25;98262.88;;;15.28;40.82
43115;BME280;28727;50.068;14.452;2023-03-25T13:20:01;98254.47;;;15.61;40.17
43115;BME280;28727;50.068;14.452;2023-03-25T13:22:42;98245.25;;;15.98;39.61
43115;BME280;28727;50.068;14.452;2023-03-25T13:25:23;98245.13;;;16.16;39.09
43115;BME280;28727;50.068;14.452;2023-03-25T13:27:59;98247.00;;;16.27;38.78
43115;BME280;28727;50.068;14.452;2023-03-25T13:30:36;98240.72;;;16.33;38.43
43115;BME280;28727;50.068;14.452;2023-03-25T13:33:22;98238.88;;;16.22;38.47
43115;BME280;28727;50.068;14.452;2023-03-25T13:36:00;98237.97;;;16.28;38.31
43115;BME280;28727;50.068;14.452;2023-03-25T13:38:48;98233.78;;;16.32;38.77
43115;BME280;28727;50.068;14.452;2023-03-25T13:41:33;98235.28;;;16.40;37.77
43115;BME280;28727;50.068;14.452;2023-03-25T13:44:21;98237.00;;;16.46;37.24
43115;BME280;28727;50.068;14.452;2023-03-25T13:47:01;98234.59;;;16.21;37.60
43115;BME280;28727;50.068;14.452;2023-03-25T13:49:54;98235.06;;;15.83;37.71
43115;BME280;28727;50.068;14.452;2023-03-25T13:52:32;98231.41;;;15.54;38.11
43115;BME280;28727;50.068;14.452;2023-03-25T13:55:23;98245.91;;;15.40;38.05
43115;BME280;28727;50.068;14.452;2023-03-25T13:58:15;98256.69;;;15.15;38.55
43115;BME280;28727;50.068;14.452;2023-03-25T14:03:43;98246.97;;;14.73;38.36
43115;BME280;28727;50.068;14.452;2023-03-25T14:06:28;98246.00;;;14.67;39.37
43115;BME280;28727;50.068;14.452;2023-03-25T14:12:16;98229.63;;;14.70;38.69
43115;BME280;28727;50.068;14.452;2023-03-25T14:15:02;98234.06;;;14.77;38.07
43115;BME280;28727;50.068;14.452;2023-03-25T14:17:36;98234.34;;;14.87;38.28
43115;BME280;28727;50.068;14.452;2023-03-25T14:20:16;98235.22;;;14.99;38.28
43115;BME280;28727;50.068;14.452;2023-03-25T14:22:54;98238.91;;;14.98;37.82
43115;BME280;28727;50.068;14.452;2023-03-25T14:25:32;98247.63;;;14.87;37.90
43115;BME280;28727;50.068;14.452;2023-03-25T14:28:14;98255.81;;;14.85;38.22
43115;BME280;28727;50.068;14.452;2023-03-25T14:44:38;98267.78;;;14.15;39.34
43115;BME280;28727;50.068;14.452;2023-03-25T14:52:46;98302.31;;;13.59;44.41
43115;BME280;28727;50.068;14.452;2023-03-25T14:55:30;98318.66;;;13.18;46.06
43115;BME280;28727;50.068;14.452;2023-03-25T14:58:22;98321.97;;;13.00;46.96
43115;BME280;28727;50.068;14.452;2023-03-25T15:01:01;98325.47;;;12.74;48.09
43115;BME280;28727;50.068;14.452;2023-03-25T15:03:40;98324.47;;;12.68;48.87
43115;BME280;28727;50.068;14.452;2023-03-25T15:06:17;98329.16;;;12.66;48.88
43115;BME280;28727;50.068;14.452;2023-03-25T15:09:02;98321.03;;;12.55;48.88
43115;BME280;28727;50.068;14.452;2023-03-25T15:11:50;98327.38;;;12.41;49.34
43115;BME280;28727;50.068;14.452;2023-03-25T15:14:26;98335.34;;;12.34;49.56
43115;BME280;28727;50.068;14.452;2023-03-25T15:17:05;98345.09;;;12.20;50.67
43115;BME280;28727;50.068;14.452;2023-03-25T15:25:54;98314.38;;;12.00;49.54
43115;BME280;28727;50.068;14.452;2023-03-25T15:31:37;98326.16;;;11.77;47.71
43115;BME280;28727;50.068;14.452;2023-03-25T15:39:46;98322.09;;;11.81;48.27
43115;BME280;28727;50.068;14.452;2023-03-25T15:45:37;98336.50;;;11.79;48.35
43115;BME280;28727;50.068;14.452;2023-03-25T16:05:38;98332.28;;;11.78;48.99
43115;BME280;28727;50.068;14.452;2023-03-25T16:08:20;98333.88;;;11.79;48.83